Pagrindinis puslapis
METAR-TAF:

METAR-TAF

Oro uostai :

Meierwik

Glücksburg, Vokietija

platuma: 54-50N, ilguma: 009-30E, Aukštis: 27 m

Dabartinis oras

Ataskaita buvo paskelbta 48 minutes, ne 20:20 UTC
Ramus vėjas
Temperatūra 12°C
Drėgmė 100%
Slėgis 1007 hPa
Matomumas 10 km arba daugiau

METAR: ETGG 162020Z AUTO 00000KT 9999 // ////// 12/12 Q1007 ///

Laikas: 23:08 (21:08 UTC)


TAF: trūkstamas

Orai ataskaitas ir orų prognozės (METAR, TAF).

turimą stotys yra geltonos ir raudonos taškus žemėlapyje.

Perkelti pele per norėdami pamatyti stoties vardą.

Tada spustelėkite, norėdami matyti oro stebėjimo ir prognozės.

Norėdami pakeisti žemėlapį: spustelėkite ant žalios mygtukų su juodo kryžiaus žemyn,; žalią mygtuką su brūkšneliu, jei norite nutolinti; arba žalių rodyklių gretimoms žemėlapius.


METAR-TAF: